Time;durP1;ratioP1;P1;durP2;ratioP2;P2;SDS_P1;SDS_P2;PMS_P1;PMS_P2;Temp;Humidity;BMP_temperature;BMP_pressure;BME280_temperature;BME280_humidity;BME280_pressure;Samples;Min_cycle;Max_cycle;Signal;HPM_P1;HPM_P2
2021/05/25 00:01:39;;;;;;;7.88;6.28;;;;;;;;;;5054014;28;20029;-58
2021/05/25 00:04:06;;;;;;;8.02;5.03;;;;;;;;;;5054287;28;20041;-59
2021/05/25 00:06:33;;;;;;;7.65;4.97;;;;;;;;;;5053663;28;20083;-60
2021/05/25 00:09:00;;;;;;;8.32;5.60;;;;;;;;;;5053459;28;20025;-59
2021/05/25 00:11:26;;;;;;;7.85;5.68;;;;;;;;;;5053665;28;20082;-57
2021/05/25 00:13:53;;;;;;;8.80;5.63;;;;;;;;;;5053569;28;20375;-58
2021/05/25 00:16:20;;;;;;;6.72;5.35;;;;;;;;;;5053621;28;20025;-58
2021/05/25 00:18:47;;;;;;;7.38;4.43;;;;;;;;;;5053429;28;20144;-59
2021/05/25 00:21:14;;;;;;;7.30;4.40;;;;;;;;;;5053370;28;20033;-59
2021/05/25 00:23:41;;;;;;;7.80;4.88;;;;;;;;;;5053399;28;20025;-58
2021/05/25 00:26:07;;;;;;;7.20;6.03;;;;;;;;;;5053264;28;20044;-59
2021/05/25 00:28:34;;;;;;;10.20;5.80;;;;;;;;;;5053263;28;20112;-59
2021/05/25 00:31:01;;;;;;;9.43;5.47;;;;;;;;;;5053509;28;20507;-58
2021/05/25 00:33:41;;;;;;;8.37;6.30;;;;;;;;;;5053191;28;20025;-57
2021/05/25 00:36:13;;;;;;;8.13;5.93;;;;;;;;;;5053295;28;20037;-58
2021/05/25 00:38:40;;;;;;;8.53;6.07;;;;;;;;;;5053280;28;20021;-59
2021/05/25 00:41:07;;;;;;;11.93;5.90;;;;;;;;;;5053090;28;20369;-57
2021/05/25 00:43:33;;;;;;;7.20;6.10;;;;;;;;;;5053030;28;20025;-59
2021/05/25 00:46:00;;;;;;;11.70;6.00;;;;;;;;;;5035070;28;20531;-57
2021/05/25 00:48:27;;;;;;;9.83;5.70;;;;;;;;;;5052902;28;20476;-59
2021/05/25 00:50:55;;;;;;;8.83;5.80;;;;;;;;;;5052922;28;20091;-57
2021/05/25 00:53:22;;;;;;;10.87;5.90;;;;;;;;;;5052779;28;20028;-58
2021/05/25 00:55:49;;;;;;;8.63;5.67;;;;;;;;;;5053140;28;20039;-57
2021/05/25 00:58:28;;;;;;;8.37;5.40;;;;;;;;;;5053092;28;20095;-57
2021/05/25 01:00:55;;;;;;;11.93;5.63;;;;;;;;;;5052852;28;20040;-58
2021/05/25 01:03:23;;;;;;;14.30;5.30;;;;;;;;;;5052776;28;20029;-56
2021/05/25 01:05:57;;;;;;;8.57;5.17;;;;;;;;;;5035690;28;20053;-58
2021/05/25 01:08:24;;;;;;;7.83;5.17;;;;;;;;;;5052757;28;20067;-58
2021/05/25 01:10:54;;;;;;;6.77;4.90;;;;;;;;;;5052702;28;20028;-58
2021/05/25 01:13:22;;;;;;;10.00;5.53;;;;;;;;;;5052715;28;20025;-57
2021/05/25 01:15:50;;;;;;;8.20;5.00;;;;;;;;;;5052836;28;20028;-58
2021/05/25 01:18:17;;;;;;;6.90;4.47;;;;;;;;;;5052709;28;20029;-58
2021/05/25 01:20:46;;;;;;;10.57;5.47;;;;;;;;;;5051883;28;20032;-58
2021/05/25 01:23:13;;;;;;;9.40;5.90;;;;;;;;;;5052600;28;20032;-57
2021/05/25 01:25:41;;;;;;;6.53;4.47;;;;;;;;;;5052541;28;20032;-57
2021/05/25 01:28:10;;;;;;;6.30;4.23;;;;;;;;;;5052497;28;20025;-58
2021/05/25 01:30:38;;;;;;;6.70;4.80;;;;;;;;;;5052461;28;20035;-58
2021/05/25 01:33:05;;;;;;;7.23;4.90;;;;;;;;;;5052458;28;20025;-58
2021/05/25 01:35:34;;;;;;;7.00;4.70;;;;;;;;;;5052357;28;20017;-58
2021/05/25 01:38:01;;;;;;;6.73;4.80;;;;;;;;;;5034669;28;20480;-56
2021/05/25 01:40:28;;;;;;;9.90;4.80;;;;;;;;;;5052589;28;20021;-58
2021/05/25 01:42:55;;;;;;;7.20;5.20;;;;;;;;;;5052346;28;20052;-58
2021/05/25 01:45:24;;;;;;;8.30;4.30;;;;;;;;;;5052183;28;20116;-58
2021/05/25 01:47:51;;;;;;;9.87;3.90;;;;;;;;;;5052383;28;20036;-57
2021/05/25 01:50:19;;;;;;;10.37;4.90;;;;;;;;;;5052366;28;20083;-58
2021/05/25 01:52:52;;;;;;;10.77;6.87;;;;;;;;;;5052430;28;20025;-58
2021/05/25 01:55:31;;;;;;;17.80;8.70;;;;;;;;;;5052219;28;20036;-58
2021/05/25 01:57:59;;;;;;;16.10;9.17;;;;;;;;;;5052202;28;20029;-58
2021/05/25 02:00:26;;;;;;;12.93;7.47;;;;;;;;;;5052352;28;20025;-57
2021/05/25 02:02:53;;;;;;;16.63;7.13;;;;;;;;;;5034325;28;20025;-58
2021/05/25 02:05:26;;;;;;;8.47;5.60;;;;;;;;;;5052569;28;20049;-58
2021/05/25 02:07:54;;;;;;;10.03;5.20;;;;;;;;;;5052060;28;20059;-59
2021/05/25 02:10:23;;;;;;;14.87;5.60;;;;;;;;;;5052250;28;20021;-58
2021/05/25 02:12:51;;;;;;;9.87;4.80;;;;;;;;;;5052255;28;20036;-57
2021/05/25 02:15:18;;;;;;;11.17;5.20;;;;;;;;;;5034132;28;20108;-57
2021/05/25 02:17:45;;;;;;;10.07;5.20;;;;;;;;;;5052310;28;20071;-57
2021/05/25 02:20:12;;;;;;;8.27;4.83;;;;;;;;;;5052135;28;20100;-57
2021/05/25 02:22:39;;;;;;;6.87;4.67;;;;;;;;;;5051910;28;20434;-58
2021/05/25 02:25:06;;;;;;;7.60;4.70;;;;;;;;;;5051762;28;20029;-58
2021/05/25 02:27:33;;;;;;;11.10;3.90;;;;;;;;;;5051970;28;20029;-58
2021/05/25 02:30:00;;;;;;;8.03;3.90;;;;;;;;;;5051870;28;20028;-58
2021/05/25 02:32:27;;;;;;;6.03;4.30;;;;;;;;;;5053704;28;20029;-58
2021/05/25 02:34:57;;;;;;;9.87;4.47;;;;;;;;;;5055415;28;20029;-57
2021/05/25 02:37:24;;;;;;;12.27;4.40;;;;;;;;;;5055484;28;20383;-57
2021/05/25 02:39:52;;;;;;;8.30;4.63;;;;;;;;;;5055509;28;20100;-57
2021/05/25 02:42:19;;;;;;;9.47;4.70;;;;;;;;;;5037392;28;20025;-58
2021/05/25 02:44:46;;;;;;;6.43;4.30;;;;;;;;;;5055336;28;20023;-56
2021/05/25 02:47:12;;;;;;;11.50;4.47;;;;;;;;;;5055184;28;20040;-56
2021/05/25 02:49:39;;;;;;;14.17;6.47;;;;;;;;;;5055246;28;20032;-58
2021/05/25 02:52:06;;;;;;;16.17;4.53;;;;;;;;;;5055177;28;20025;-57
2021/05/25 02:54:33;;;;;;;15.73;4.93;;;;;;;;;;5055136;28;20055;-57
2021/05/25 02:57:00;;;;;;;5.53;4.27;;;;;;;;;;5037524;28;20021;-57
2021/05/25 02:59:26;;;;;;;9.67;5.20;;;;;;;;;;5054957;28;20488;-57
2021/05/25 03:01:53;;;;;;;11.07;5.23;;;;;;;;;;5055153;28;20032;-57
2021/05/25 03:04:20;;;;;;;10.47;4.40;;;;;;;;;;5055245;28;20025;-58
2021/05/25 03:06:47;;;;;;;8.97;4.80;;;;;;;;;;5054836;28;20048;-58
2021/05/25 03:09:13;;;;;;;9.23;4.57;;;;;;;;;;5054858;28;20055;-58
2021/05/25 03:11:40;;;;;;;7.60;4.73;;;;;;;;;;5054805;28;20025;-58
2021/05/25 03:14:07;;;;;;;8.23;4.63;;;;;;;;;;5054547;28;20040;-58
2021/05/25 03:16:34;;;;;;;8.37;5.03;;;;;;;;;;5054694;28;20033;-58
2021/05/25 03:19:01;;;;;;;8.57;4.83;;;;;;;;;;5054662;28;20021;-58
2021/05/25 03:21:28;;;;;;;8.87;5.13;;;;;;;;;;5054616;28;20025;-58
2021/05/25 03:23:55;;;;;;;10.17;6.17;;;;;;;;;;5054505;28;20029;-58
2021/05/25 03:26:22;;;;;;;9.43;4.90;;;;;;;;;;5054392;28;20113;-58
2021/05/25 03:28:49;;;;;;;8.93;5.07;;;;;;;;;;5054424;28;20437;-58
2021/05/25 03:31:16;;;;;;;7.50;5.17;;;;;;;;;;5054387;28;20434;-58
2021/05/25 03:33:43;;;;;;;12.03;6.47;;;;;;;;;;5054390;28;20017;-58
2021/05/25 03:36:10;;;;;;;9.33;5.50;;;;;;;;;;5054261;28;20025;-58
2021/05/25 03:38:36;;;;;;;7.40;4.97;;;;;;;;;;5054176;28;20083;-58
2021/05/25 03:41:03;;;;;;;9.60;4.93;;;;;;;;;;5054155;28;20021;-58
2021/05/25 03:43:30;;;;;;;9.33;5.60;;;;;;;;;;5053305;28;20048;-58
2021/05/25 03:45:57;;;;;;;8.23;5.00;;;;;;;;;;5054084;28;20107;-58
2021/05/25 03:48:23;;;;;;;8.93;5.20;;;;;;;;;;5054328;28;20043;-58
2021/05/25 03:50:51;;;;;;;7.07;5.40;;;;;;;;;;5036388;28;20025;-58
2021/05/25 03:53:17;;;;;;;9.53;5.90;;;;;;;;;;5053963;28;20089;-58
2021/05/25 03:55:52;;;;;;;6.63;5.13;;;;;;;;;;5054153;28;20025;-57
2021/05/25 04:01:05;;;;;;;11.23;6.05;;;;;;;;;;5054356;28;20470;-58
2021/05/25 04:03:31;;;;;;;11.00;6.63;;;;;;;;;;5053823;28;20017;-58
2021/05/25 04:05:58;;;;;;;8.63;6.97;;;;;;;;;;5054146;28;20082;-58
2021/05/25 04:08:25;;;;;;;8.90;6.23;;;;;;;;;;5053616;28;20100;-58
2021/05/25 04:10:52;;;;;;;7.90;6.10;;;;;;;;;;5035899;28;20472;-58
2021/05/25 04:13:19;;;;;;;11.00;6.87;;;;;;;;;;5053641;28;20387;-58
2021/05/25 04:15:48;;;;;;;10.00;6.50;;;;;;;;;;5053614;28;20017;-58
2021/05/25 04:18:15;;;;;;;11.57;6.40;;;;;;;;;;5053525;28;20033;-58
2021/05/25 04:20:42;;;;;;;9.13;6.53;;;;;;;;;;5053497;28;20044;-58
2021/05/25 04:23:09;;;;;;;7.47;6.50;;;;;;;;;;5053455;28;20498;-58
2021/05/25 04:25:36;;;;;;;12.53;6.00;;;;;;;;;;5053355;28;20037;-58
2021/05/25 04:28:02;;;;;;;8.07;5.83;;;;;;;;;;5053794;28;20082;-58
2021/05/25 04:30:29;;;;;;;8.87;6.33;;;;;;;;;;5053386;28;20040;-58
2021/05/25 04:32:56;;;;;;;10.47;6.47;;;;;;;;;;5053266;28;20104;-58
2021/05/25 04:35:23;;;;;;;9.73;6.47;;;;;;;;;;5053242;28;20025;-58
2021/05/25 04:37:56;;;;;;;8.20;6.13;;;;;;;;;;5053240;28;20112;-58
2021/05/25 04:40:23;;;;;;;6.77;5.07;;;;;;;;;;5053268;28;20056;-58
2021/05/25 04:42:49;;;;;;;6.73;5.03;;;;;;;;;;5053180;28;20023;-58
2021/05/25 04:45:17;;;;;;;10.70;4.83;;;;;;;;;;5052929;28;20028;-58
2021/05/25 04:47:43;;;;;;;10.10;4.83;;;;;;;;;;5053020;28;20037;-58
2021/05/25 04:50:11;;;;;;;7.73;4.80;;;;;;;;;;5052939;28;20105;-58
2021/05/25 04:52:38;;;;;;;5.93;3.73;;;;;;;;;;5053110;28;20029;-58
2021/05/25 04:55:06;;;;;;;6.53;4.30;;;;;;;;;;5052895;28;20107;-57
2021/05/25 04:57:33;;;;;;;7.13;4.20;;;;;;;;;;5052908;28;20028;-57
2021/05/25 05:00:00;;;;;;;8.27;4.17;;;;;;;;;;5053563;28;20029;-58
2021/05/25 05:02:27;;;;;;;8.73;4.43;;;;;;;;;;5052897;28;20024;-58
2021/05/25 05:04:53;;;;;;;8.33;4.37;;;;;;;;;;5053253;28;20098;-58
2021/05/25 05:07:20;;;;;;;8.83;3.80;;;;;;;;;;5052743;28;20037;-58
2021/05/25 05:09:47;;;;;;;11.77;4.57;;;;;;;;;;5052735;28;20095;-58
2021/05/25 05:12:14;;;;;;;6.03;3.20;;;;;;;;;;5052676;28;20036;-58
2021/05/25 05:14:41;;;;;;;6.17;3.27;;;;;;;;;;5052551;28;20025;-58
2021/05/25 05:17:07;;;;;;;7.50;3.77;;;;;;;;;;5052685;28;20017;-58
2021/05/25 05:19:34;;;;;;;5.57;3.73;;;;;;;;;;5052664;28;20029;-58
2021/05/25 05:22:01;;;;;;;5.33;3.47;;;;;;;;;;5052548;28;20050;-58
2021/05/25 05:24:28;;;;;;;12.00;3.43;;;;;;;;;;5052579;28;20565;-58
2021/05/25 05:26:55;;;;;;;7.17;3.47;;;;;;;;;;5052533;28;20091;-58
2021/05/25 05:29:21;;;;;;;5.20;3.00;;;;;;;;;;5052801;28;20017;-58
2021/05/25 05:31:48;;;;;;;7.27;3.30;;;;;;;;;;5052565;28;20032;-58
2021/05/25 05:34:15;;;;;;;6.80;4.77;;;;;;;;;;5052452;28;20376;-58
2021/05/25 05:36:42;;;;;;;6.57;4.20;;;;;;;;;;5052601;28;20115;-58
2021/05/25 05:39:08;;;;;;;8.00;4.40;;;;;;;;;;5052504;28;20025;-58
2021/05/25 05:41:35;;;;;;;6.80;4.63;;;;;;;;;;5052622;28;20022;-58
2021/05/25 05:44:02;;;;;;;10.13;4.00;;;;;;;;;;5052395;28;20036;-58
2021/05/25 05:46:29;;;;;;;7.37;4.07;;;;;;;;;;5052319;28;20158;-58
2021/05/25 05:48:56;;;;;;;8.33;4.30;;;;;;;;;;5034469;28;20029;-58
2021/05/25 05:51:23;;;;;;;7.50;4.93;;;;;;;;;;5052343;28;20025;-58
2021/05/25 05:53:50;;;;;;;6.00;4.07;;;;;;;;;;5052157;28;20510;-58
2021/05/25 05:56:18;;;;;;;8.40;4.00;;;;;;;;;;5052674;28;20456;-58
2021/05/25 05:58:45;;;;;;;8.17;4.53;;;;;;;;;;5052388;28;20029;-58
2021/05/25 06:01:13;;;;;;;6.43;4.47;;;;;;;;;;5052206;28;20025;-58
2021/05/25 06:03:40;;;;;;;7.00;4.10;;;;;;;;;;5052146;28;20108;-57
2021/05/25 06:06:07;;;;;;;5.83;3.73;;;;;;;;;;5052709;28;20271;-57
2021/05/25 06:08:34;;;;;;;6.87;3.80;;;;;;;;;;5055933;28;20096;-58
2021/05/25 06:11:01;;;;;;;7.57;4.33;;;;;;;;;;5056074;28;20025;-58
2021/05/25 06:13:27;;;;;;;6.10;3.70;;;;;;;;;;5055999;28;20025;-58
2021/05/25 06:15:58;;;;;;;5.73;3.83;;;;;;;;;;5055839;28;20086;-58
2021/05/25 06:18:24;;;;;;;7.80;3.77;;;;;;;;;;5055933;28;20021;-58
2021/05/25 06:20:53;;;;;;;5.97;3.70;;;;;;;;;;5055904;28;20049;-58
2021/05/25 06:23:20;;;;;;;5.77;3.60;;;;;;;;;;5055688;28;20025;-58
2021/05/25 06:25:47;;;;;;;6.57;4.10;;;;;;;;;;5055900;28;20028;-58
2021/05/25 06:28:14;;;;;;;7.73;3.80;;;;;;;;;;5055702;28;20096;-58
2021/05/25 06:30:41;;;;;;;5.03;3.63;;;;;;;;;;5055566;28;20025;-58
2021/05/25 06:33:08;;;;;;;8.37;4.10;;;;;;;;;;5055662;28;20078;-58
2021/05/25 06:35:35;;;;;;;5.53;3.50;;;;;;;;;;5055760;28;20025;-58
2021/05/25 06:38:02;;;;;;;7.97;3.90;;;;;;;;;;5055510;28;20029;-58
2021/05/25 06:40:29;;;;;;;8.63;4.37;;;;;;;;;;5055419;28;20048;-58
2021/05/25 06:42:56;;;;;;;6.73;4.00;;;;;;;;;;5055541;28;20051;-58
2021/05/25 06:45:25;;;;;;;5.97;3.87;;;;;;;;;;5055138;28;20024;-58
2021/05/25 06:47:52;;;;;;;4.73;3.23;;;;;;;;;;5055457;28;20064;-58
2021/05/25 06:50:19;;;;;;;5.23;3.70;;;;;;;;;;5055233;28;20037;-58
2021/05/25 06:52:46;;;;;;;7.50;3.67;;;;;;;;;;5055258;28;20380;-58
2021/05/25 06:55:13;;;;;;;8.73;4.10;;;;;;;;;;5055339;28;20029;-58
2021/05/25 06:57:40;;;;;;;7.57;4.50;;;;;;;;;;5055238;28;20100;-58
2021/05/25 07:00:08;;;;;;;5.80;3.37;;;;;;;;;;5055231;28;20064;-58
2021/05/25 07:02:35;;;;;;;6.17;3.57;;;;;;;;;;5055138;28;20028;-58
2021/05/25 07:05:03;;;;;;;12.03;4.27;;;;;;;;;;5055345;28;20044;-59
2021/05/25 07:07:30;;;;;;;5.27;3.63;;;;;;;;;;5054983;28;20025;-58
2021/05/25 07:09:56;;;;;;;9.47;4.10;;;;;;;;;;5055004;28;20096;-58
2021/05/25 07:12:23;;;;;;;5.60;3.47;;;;;;;;;;5054782;28;20021;-58
2021/05/25 07:14:50;;;;;;;7.97;4.00;;;;;;;;;;5054801;28;20021;-58
2021/05/25 07:17:17;;;;;;;6.53;4.60;;;;;;;;;;5054744;28;20024;-58
2021/05/25 07:19:44;;;;;;;6.03;4.13;;;;;;;;;;5053716;28;20025;-58
2021/05/25 07:22:10;;;;;;;8.00;4.60;;;;;;;;;;5054615;28;20498;-58
2021/05/25 07:24:37;;;;;;;7.00;4.10;;;;;;;;;;5054682;28;20032;-58
2021/05/25 07:27:04;;;;;;;6.27;3.83;;;;;;;;;;5054552;28;20427;-58
2021/05/25 07:29:31;;;;;;;6.23;4.00;;;;;;;;;;5054662;28;20032;-58
2021/05/25 07:31:58;;;;;;;7.57;4.10;;;;;;;;;;5054415;28;20090;-58
2021/05/25 07:34:25;;;;;;;7.57;3.90;;;;;;;;;;5054343;28;20033;-58
2021/05/25 07:36:52;;;;;;;6.70;3.73;;;;;;;;;;5054320;28;20487;-58
2021/05/25 07:39:19;;;;;;;7.70;3.87;;;;;;;;;;5054396;28;20025;-57
2021/05/25 07:41:46;;;;;;;10.33;3.97;;;;;;;;;;5054351;28;20299;-58
2021/05/25 07:44:13;;;;;;;5.97;4.00;;;;;;;;;;5054330;28;20029;-58
2021/05/25 07:46:40;;;;;;;11.43;3.97;;;;;;;;;;5054037;28;20258;-58
2021/05/25 07:49:06;;;;;;;5.20;3.97;;;;;;;;;;5054157;28;20025;-58
2021/05/25 07:51:33;;;;;;;5.23;3.40;;;;;;;;;;5054104;28;20028;-58
2021/05/25 07:54:00;;;;;;;7.67;4.07;;;;;;;;;;5053936;28;20460;-58
2021/05/25 07:56:27;;;;;;;7.53;4.03;;;;;;;;;;5054053;28;20029;-58
2021/05/25 07:58:54;;;;;;;5.57;3.63;;;;;;;;;;5053942;28;20025;-58
2021/05/25 08:01:21;;;;;;;4.63;3.40;;;;;;;;;;5054331;28;20048;-58
2021/05/25 08:03:48;;;;;;;8.77;3.60;;;;;;;;;;5053852;28;20091;-58
2021/05/25 08:06:15;;;;;;;5.77;3.37;;;;;;;;;;5054203;28;20106;-58
2021/05/25 08:08:42;;;;;;;5.83;3.90;;;;;;;;;;5053872;28;20117;-58
2021/05/25 08:11:13;;;;;;;7.27;4.03;;;;;;;;;;5053795;28;20033;-58
2021/05/25 08:13:40;;;;;;;6.27;3.90;;;;;;;;;;5053829;28;20388;-58
2021/05/25 08:16:09;;;;;;;7.07;4.10;;;;;;;;;;5053795;28;20083;-58
2021/05/25 08:21:03;;;;;;;5.83;3.77;;;;;;;;;;5053677;28;20078;-58
2021/05/25 08:23:30;;;;;;;6.33;3.53;;;;;;;;;;5053412;28;20491;-58
2021/05/25 08:25:57;;;;;;;5.20;3.77;;;;;;;;;;5053715;28;20384;-58
2021/05/25 08:28:24;;;;;;;5.33;3.63;;;;;;;;;;5053463;28;20029;-58
2021/05/25 08:30:51;;;;;;;5.37;3.40;;;;;;;;;;5053373;28;20025;-57
2021/05/25 08:33:19;;;;;;;6.33;3.90;;;;;;;;;;5053347;28;20021;-57
2021/05/25 08:35:46;;;;;;;5.40;3.70;;;;;;;;;;5053387;28;20029;-58
2021/05/25 08:38:15;;;;;;;6.37;3.77;;;;;;;;;;5053411;28;20017;-58
2021/05/25 08:40:42;;;;;;;7.60;4.00;;;;;;;;;;5053305;28;20025;-57
2021/05/25 08:43:09;;;;;;;9.27;4.40;;;;;;;;;;5053415;28;20078;-58
2021/05/25 08:45:36;;;;;;;6.73;4.20;;;;;;;;;;5052896;28;20129;-57
2021/05/25 08:48:03;;;;;;;8.17;3.73;;;;;;;;;;5053011;28;20468;-58
2021/05/25 08:50:30;;;;;;;7.70;3.93;;;;;;;;;;5053012;28;20025;-57
2021/05/25 08:53:03;;;;;;;4.93;3.43;;;;;;;;;;5053012;28;20029;-57
2021/05/25 08:55:33;;;;;;;9.97;4.53;;;;;;;;;;5053118;28;20106;-58
2021/05/25 08:58:00;;;;;;;5.53;3.80;;;;;;;;;;5052906;28;20096;-58
2021/05/25 09:00:27;;;;;;;5.13;3.87;;;;;;;;;;5052854;28;20071;-57
2021/05/25 09:02:55;;;;;;;5.37;3.70;;;;;;;;;;5052900;28;20013;-57
2021/05/25 09:05:22;;;;;;;6.03;3.77;;;;;;;;;;5053194;28;20126;-58
2021/05/25 09:07:53;;;;;;;5.10;3.53;;;;;;;;;;5052827;28;20036;-58
2021/05/25 09:10:45;;;;;;;5.63;4.20;;;;;;;;;;5034931;28;20047;-57
2021/05/25 09:13:12;;;;;;;6.87;3.87;;;;;;;;;;5052589;28;20021;-58
2021/05/25 09:15:42;;;;;;;7.00;4.10;;;;;;;;;;5052794;28;20021;-57
2021/05/25 09:18:13;;;;;;;8.03;4.00;;;;;;;;;;5052581;28;20035;-58
2021/05/25 09:20:40;;;;;;;6.53;4.47;;;;;;;;;;5052585;28;20067;-58
2021/05/25 09:23:07;;;;;;;5.30;3.73;;;;;;;;;;5052556;28;20400;-58
2021/05/25 09:25:34;;;;;;;5.67;3.97;;;;;;;;;;5052717;28;20465;-57
2021/05/25 09:28:14;;;;;;;5.93;4.23;;;;;;;;;;5052658;28;20021;-58
2021/05/25 09:30:45;;;;;;;5.87;4.33;;;;;;;;;;5052653;28;20025;-57
2021/05/25 09:33:12;;;;;;;6.17;4.00;;;;;;;;;;5052561;28;20086;-58
2021/05/25 09:35:40;;;;;;;7.20;4.40;;;;;;;;;;5034697;28;20017;-57
2021/05/25 09:38:13;;;;;;;8.40;4.80;;;;;;;;;;5052462;28;20036;-57
2021/05/25 09:40:42;;;;;;;8.00;4.50;;;;;;;;;;5052472;28;20032;-58
2021/05/25 09:43:22;;;;;;;6.27;4.10;;;;;;;;;;5055777;28;20533;-57
2021/05/25 09:45:56;;;;;;;7.70;4.90;;;;;;;;;;5056347;28;20048;-58
2021/05/25 09:48:23;;;;;;;6.87;4.50;;;;;;;;;;5056463;28;20475;-57
2021/05/25 09:50:50;;;;;;;6.77;4.27;;;;;;;;;;5056369;28;20376;-57
2021/05/25 09:53:21;;;;;;;7.67;4.57;;;;;;;;;;5056301;28;20581;-57
2021/05/25 09:55:50;;;;;;;7.13;5.03;;;;;;;;;;5056516;28;20040;-58
2021/05/25 09:58:17;;;;;;;7.67;4.80;;;;;;;;;;5056551;28;20092;-57
2021/05/25 10:00:46;;;;;;;7.87;4.77;;;;;;;;;;5056205;28;20471;-57
2021/05/25 10:03:17;;;;;;;6.50;4.70;;;;;;;;;;5056223;28;20028;-58
2021/05/25 10:05:45;;;;;;;7.90;4.93;;;;;;;;;;5056575;28;20049;-58
2021/05/25 10:08:13;;;;;;;9.53;4.17;;;;;;;;;;5056185;28;20031;-58
2021/05/25 10:10:40;;;;;;;6.57;4.50;;;;;;;;;;5055963;28;20017;-57
2021/05/25 10:13:07;;;;;;;7.73;5.17;;;;;;;;;;5056022;28;20094;-58
2021/05/25 10:15:34;;;;;;;9.03;5.20;;;;;;;;;;5055889;28;20029;-57
2021/05/25 10:20:29;;;;;;;7.67;5.23;;;;;;;;;;5055991;28;20036;-58
2021/05/25 10:22:56;;;;;;;8.00;4.20;;;;;;;;;;5055877;28;20021;-57
2021/05/25 10:25:25;;;;;;;8.77;4.90;;;;;;;;;;5055781;28;20035;-57
2021/05/25 10:27:52;;;;;;;9.83;4.40;;;;;;;;;;5055848;28;20392;-57
2021/05/25 10:30:25;;;;;;;6.57;4.03;;;;;;;;;;5055592;28;20021;-57
2021/05/25 10:32:52;;;;;;;5.97;4.30;;;;;;;;;;5037647;28;20033;-57
2021/05/25 10:35:20;;;;;;;8.17;4.40;;;;;;;;;;5055747;28;20029;-57
2021/05/25 10:38:06;;;;;;;5.30;4.07;;;;;;;;;;5055708;28;20025;-57
2021/05/25 10:40:40;;;;;;;8.23;4.43;;;;;;;;;;5055573;28;20033;-57
2021/05/25 10:43:25;;;;;;;6.97;4.40;;;;;;;;;;5055444;28;20055;-57
2021/05/25 10:45:52;;;;;;;6.55;4.97;;;;;;;;;;5055277;28;20033;-57
2021/05/25 10:48:19;;;;;;;6.43;4.10;;;;;;;;;;5055465;28;20021;-57
2021/05/25 10:50:51;;;;;;;7.07;4.47;;;;;;;;;;5055378;28;20464;-57
2021/05/25 10:53:27;;;;;;;5.17;4.03;;;;;;;;;;5055138;28;20100;-57
2021/05/25 10:55:55;;;;;;;8.03;4.43;;;;;;;;;;5055048;28;20029;-58
2021/05/25 10:58:29;;;;;;;10.40;4.80;;;;;;;;;;5055358;28;20475;-57
2021/05/25 11:00:56;;;;;;;7.83;4.50;;;;;;;;;;5055229;28;20044;-57
2021/05/25 11:03:23;;;;;;;6.57;4.33;;;;;;;;;;5037150;28;20063;-57
2021/05/25 11:05:51;;;;;;;6.87;4.27;;;;;;;;;;5055424;28;20463;-57
2021/05/25 11:08:18;;;;;;;8.20;5.17;;;;;;;;;;5054929;28;20025;-57
2021/05/25 11:10:46;;;;;;;6.80;4.70;;;;;;;;;;5055031;28;20079;-57
2021/05/25 11:13:21;;;;;;;7.70;4.60;;;;;;;;;;5055021;28;20056;-57
2021/05/25 11:16:17;;;;;;;9.88;4.75;;;;;;;;;;5055013;28;20025;-57
2021/05/25 11:24:29;;;;;;;5.83;4.10;;;;;;;;;;5040046;28;20029;-58
2021/05/25 11:26:57;;;;;;;5.53;3.77;;;;;;;;;;5036767;28;20080;-57
2021/05/25 11:29:51;;;;;;;6.67;4.47;;;;;;;;;;5054619;28;20090;-57
2021/05/25 11:32:20;;;;;;;6.93;3.97;;;;;;;;;;5054570;28;20032;-57
2021/05/25 11:34:59;;;;;;;9.40;4.43;;;;;;;;;;5054490;28;20036;-57
2021/05/25 11:37:27;;;;;;;7.60;3.80;;;;;;;;;;5054392;28;20480;-58
2021/05/25 11:39:55;;;;;;;15.07;4.57;;;;;;;;;;5054458;28;20060;-57
2021/05/25 11:42:32;;;;;;;11.50;5.17;;;;;;;;;;5054364;28;20108;-58
2021/05/25 11:44:59;;;;;;;15.30;8.63;;;;;;;;;;5054235;28;20384;-58
2021/05/25 11:47:26;;;;;;;11.50;7.63;;;;;;;;;;5054145;28;20029;-58
2021/05/25 11:49:54;;;;;;;13.27;5.57;;;;;;;;;;5054263;28;20029;-58
2021/05/25 11:52:34;;;;;;;10.80;5.27;;;;;;;;;;5054288;28;20392;-58
2021/05/25 11:55:08;;;;;;;10.03;4.70;;;;;;;;;;5054158;28;20040;-58
2021/05/25 11:57:37;;;;;;;7.07;3.88;;;;;;;;;;5054007;28;20525;-58
2021/05/25 12:00:07;;;;;;;11.93;5.77;;;;;;;;;;5053951;28;20033;-58
2021/05/25 12:02:34;;;;;;;10.07;5.07;;;;;;;;;;5053986;28;20123;-58
2021/05/25 12:05:05;;;;;;;6.00;4.33;;;;;;;;;;5053368;28;20498;-58
2021/05/25 12:07:33;;;;;;;7.60;5.13;;;;;;;;;;5052877;28;20136;-58
2021/05/25 12:10:01;;;;;;;11.13;5.20;;;;;;;;;;5053787;28;20033;-58
2021/05/25 12:12:29;;;;;;;26.20;7.33;;;;;;;;;;5053759;28;20048;-58
2021/05/25 12:14:59;;;;;;;7.40;5.20;;;;;;;;;;5053864;28;20075;-58
2021/05/25 12:17:29;;;;;;;6.47;4.60;;;;;;;;;;5053568;28;20380;-58
2021/05/25 12:19:57;;;;;;;11.73;4.93;;;;;;;;;;5053600;28;20028;-58
2021/05/25 12:22:33;;;;;;;8.80;4.73;;;;;;;;;;5053620;28;20333;-58
2021/05/25 12:25:15;;;;;;;11.60;4.77;;;;;;;;;;5053612;28;20128;-58
2021/05/25 12:27:42;;;;;;;7.87;5.50;;;;;;;;;;5053434;28;20415;-58
2021/05/25 12:30:09;;;;;;;5.83;3.50;;;;;;;;;;5053671;28;20476;-58
2021/05/25 12:32:36;;;;;;;6.23;3.70;;;;;;;;;;5053265;28;20353;-58
2021/05/25 12:35:04;;;;;;;5.27;3.43;;;;;;;;;;5053400;28;20036;-58
2021/05/25 12:37:31;;;;;;;5.13;3.53;;;;;;;;;;5053629;28;20029;-58
2021/05/25 12:40:02;;;;;;;16.83;4.63;;;;;;;;;;5053288;28;20395;-58
2021/05/25 12:42:34;;;;;;;7.80;3.67;;;;;;;;;;5053069;28;20052;-58
2021/05/25 12:45:08;;;;;;;6.13;3.60;;;;;;;;;;5053174;28;20025;-58
2021/05/25 12:47:52;;;;;;;7.95;3.95;;;;;;;;;;5053059;28;20037;-58
2021/05/25 12:50:32;;;;;;;5.70;3.70;;;;;;;;;;5053062;28;20045;-58
2021/05/25 12:53:21;;;;;;;7.50;3.70;;;;;;;;;;5053264;28;20036;-58
2021/05/25 12:55:54;;;;;;;4.67;3.40;;;;;;;;;;5040336;28;20033;-58
2021/05/25 12:58:36;;;;;;;6.17;3.70;;;;;;;;;;5053295;28;20383;-58
2021/05/25 13:01:18;;;;;;;6.37;3.90;;;;;;;;;;5053055;28;20036;-58
2021/05/25 13:03:44;;;;;;;10.97;3.83;;;;;;;;;;5052971;28;20033;-58
2021/05/25 13:06:14;;;;;;;13.53;4.47;;;;;;;;;;5053432;28;20059;-58
2021/05/25 13:08:43;;;;;;;6.73;3.90;;;;;;;;;;5052801;28;20021;-58
2021/05/25 13:11:11;;;;;;;10.40;4.90;;;;;;;;;;5052800;28;20549;-58
2021/05/25 13:13:45;;;;;;;10.77;5.73;;;;;;;;;;5052824;28;20029;-58
2021/05/25 13:16:39;;;;;;;10.48;5.80;;;;;;;;;;5051850;28;20033;-58
2021/05/25 13:19:05;;;;;;;11.23;5.30;;;;;;;;;;5048627;28;20033;-58
2021/05/25 13:21:53;;;;;;;11.17;5.20;;;;;;;;;;5052758;28;20036;-59
2021/05/25 13:24:27;;;;;;;11.90;4.97;;;;;;;;;;5052220;28;20071;-59
2021/05/25 13:27:01;;;;;;;9.43;4.43;;;;;;;;;;5052284;28;20123;-58
2021/05/25 13:29:41;;;;;;;9.02;4.55;;;;;;;;;;5048342;28;20033;-58
2021/05/25 13:32:08;;;;;;;9.13;4.20;;;;;;;;;;5051695;28;20087;-58
2021/05/25 13:34:49;;;;;;;8.17;4.00;;;;;;;;;;5052735;28;20021;-58
2021/05/25 13:37:23;;;;;;;6.83;4.10;;;;;;;;;;5034859;28;20040;-58
2021/05/25 13:39:54;;;;;;;7.43;4.53;;;;;;;;;;5051587;28;20067;-58
2021/05/25 13:42:34;;;;;;;8.83;4.60;;;;;;;;;;5052366;28;20112;-58
2021/05/25 13:45:11;;;;;;;10.67;5.00;;;;;;;;;;5052479;28;20024;-58
2021/05/25 13:47:38;;;;;;;14.40;4.43;;;;;;;;;;5052488;28;20040;-58
2021/05/25 13:50:22;;;;;;;8.30;4.47;;;;;;;;;;5052359;28;20036;-58
2021/05/25 13:52:49;;;;;;;5.50;4.17;;;;;;;;;;5052431;28;20025;-58
2021/05/25 13:55:40;;;;;;;7.63;4.03;;;;;;;;;;5052149;28;20029;-58
2021/05/25 13:58:10;;;;;;;7.07;4.27;;;;;;;;;;5050898;28;20029;-58
2021/05/25 14:00:59;;;;;;;9.63;4.20;;;;;;;;;;5052411;28;20025;-58
2021/05/25 14:03:33;;;;;;;8.30;5.20;;;;;;;;;;5052351;28;20098;-58
2021/05/25 14:06:05;;;;;;;9.93;4.87;;;;;;;;;;5052193;28;20041;-58
2021/05/25 14:08:38;;;;;;;10.40;5.03;;;;;;;;;;5051413;28;20040;-58
2021/05/25 14:11:05;;;;;;;9.07;4.00;;;;;;;;;;5052271;28;20505;-59
2021/05/25 14:13:32;;;;;;;7.73;4.40;;;;;;;;;;5052255;28;20040;-58
2021/05/25 14:16:00;;;;;;;15.37;4.63;;;;;;;;;;5052231;28;20071;-58
2021/05/25 14:18:27;;;;;;;7.60;4.37;;;;;;;;;;5052163;28;20390;-59
2021/05/25 14:20:53;;;;;;;7.03;4.33;;;;;;;;;;5052080;28;20021;-56
2021/05/25 14:23:27;;;;;;;7.17;3.30;;;;;;;;;;5052287;28;20021;-57
2021/05/25 14:25:58;;;;;;;8.87;3.77;;;;;;;;;;5051652;28;20123;-58
2021/05/25 14:28:24;;;;;;;10.20;4.70;;;;;;;;;;5053288;28;20041;-57
2021/05/25 14:30:51;;;;;;;9.80;4.47;;;;;;;;;;5055809;28;20034;-57
2021/05/25 14:33:20;;;;;;;8.10;4.87;;;;;;;;;;5055584;28;20033;-56
2021/05/25 14:35:47;;;;;;;8.57;5.03;;;;;;;;;;5055687;28;20080;-58
2021/05/25 14:38:16;;;;;;;8.67;4.60;;;;;;;;;;5055576;28;20028;-57
2021/05/25 14:40:44;;;;;;;11.43;5.00;;;;;;;;;;5055401;28;20029;-57
2021/05/25 14:43:11;;;;;;;7.07;4.10;;;;;;;;;;5055504;28;20132;-57
2021/05/25 14:45:38;;;;;;;10.83;4.63;;;;;;;;;;5055217;28;20471;-58
2021/05/25 14:48:05;;;;;;;8.83;4.43;;;;;;;;;;5055382;28;20036;-57
2021/05/25 14:50:32;;;;;;;7.37;4.83;;;;;;;;;;5055316;28;20399;-57
2021/05/25 14:53:08;;;;;;;8.10;4.17;;;;;;;;;;5055329;28;20032;-57
2021/05/25 14:55:35;;;;;;;6.47;4.00;;;;;;;;;;5055203;28;20068;-58
2021/05/25 14:58:02;;;;;;;8.63;4.43;;;;;;;;;;5055380;28;20029;-58
2021/05/25 15:00:38;;;;;;;8.27;4.37;;;;;;;;;;5055138;28;20104;-58
2021/05/25 15:03:09;;;;;;;5.60;4.17;;;;;;;;;;5037183;28;20063;-57
2021/05/25 15:05:47;;;;;;;5.87;3.50;;;;;;;;;;5055256;28;20082;-60